Time;durP1;ratioP1;P1;durP2;ratioP2;P2;SDS_P1;SDS_P2;PMS_P1;PMS_P2;Temp;Humidity;BMP_temperature;BMP_pressure;BME280_temperature;BME280_humidity;BME280_pressure;Samples;Min_cycle;Max_cycle;Signal;HPM_P1;HPM_P2
2023/04/07 00:01:51;;;;;;;49.17;36.55;;;;;;;;;;4997290;28;20538;-74
2023/04/07 00:04:17;;;;;;;46.47;35.70;;;;;;;;;;4992809;28;20022;-73
2023/04/07 00:06:42;;;;;;;42.70;34.58;;;;;;;;;;4992127;28;20377;-73
2023/04/07 00:09:08;;;;;;;50.25;40.00;;;;;;;;;;4986430;28;20426;-73
2023/04/07 00:11:33;;;;;;;52.45;41.53;;;;;;;;;;4993936;28;20322;-73
2023/04/07 00:13:59;;;;;;;81.00;59.33;;;;;;;;;;4988010;28;20491;-75
2023/04/07 00:16:24;;;;;;;64.00;51.00;;;;;;;;;;4994437;28;20034;-74
2023/04/07 00:18:49;;;;;;;60.33;46.10;;;;;;;;;;4993394;28;20409;-77
2023/04/07 00:21:14;;;;;;;62.65;47.92;;;;;;;;;;4994424;28;20037;-75
2023/04/07 00:23:41;;;;;;;71.22;54.28;;;;;;;;;;4995395;28;20068;-73
2023/04/07 00:26:07;;;;;;;80.07;59.05;;;;;;;;;;4994832;28;20080;-74
2023/04/07 00:28:32;;;;;;;99.30;70.97;;;;;;;;;;4997321;28;20429;-73
2023/04/07 00:30:57;;;;;;;97.88;68.30;;;;;;;;;;4984789;28;20091;-73
2023/04/07 00:33:22;;;;;;;103.60;72.85;;;;;;;;;;4996575;28;20034;-72
2023/04/07 00:35:48;;;;;;;93.75;69.68;;;;;;;;;;4996802;28;20036;-73
2023/04/07 00:38:13;;;;;;;94.03;69.75;;;;;;;;;;4996002;28;20097;-76
2023/04/07 00:40:38;;;;;;;97.00;72.40;;;;;;;;;;4993590;28;20394;-74
2023/04/07 00:43:04;;;;;;;110.65;84.10;;;;;;;;;;4993152;28;20384;-74
2023/04/07 00:45:30;;;;;;;95.78;71.60;;;;;;;;;;4995578;28;20036;-76
2023/04/07 00:47:58;;;;;;;99.70;77.40;;;;;;;;;;5000588;28;20539;-72
2023/04/07 00:50:24;;;;;;;97.22;71.95;;;;;;;;;;4985024;28;20075;-74
2023/04/07 00:52:49;;;;;;;88.63;65.13;;;;;;;;;;4989409;28;20396;-73
2023/04/07 00:55:15;;;;;;;73.18;54.78;;;;;;;;;;4997773;28;21183;-73
2023/04/07 00:57:40;;;;;;;94.53;69.40;;;;;;;;;;4998148;28;20030;-73
2023/04/07 01:00:06;;;;;;;73.03;57.00;;;;;;;;;;4988743;28;20096;-73
2023/04/07 01:02:35;;;;;;;112.95;80.00;;;;;;;;;;4993775;28;20492;-75
2023/04/07 01:05:06;;;;;;;45.67;34.93;;;;;;;;;;4998631;28;20469;-73
2023/04/07 01:07:34;;;;;;;47.63;36.67;;;;;;;;;;4998489;28;20155;-73
2023/04/07 01:10:04;;;;;;;51.67;39.92;;;;;;;;;;4997027;28;20790;-74
2023/04/07 01:13:01;;;;;;;61.85;47.33;;;;;;;;;;4974351;28;20469;-73
2023/04/07 01:15:28;;;;;;;66.57;49.72;;;;;;;;;;4916814;29;20049;-73
2023/04/07 01:17:56;;;;;;;60.47;47.17;;;;;;;;;;4922791;29;20485;-72
2023/04/07 01:20:22;;;;;;;54.03;41.35;;;;;;;;;;4925995;29;20055;-74
2023/04/07 01:22:53;;;;;;;50.13;39.47;;;;;;;;;;4925581;29;20119;-72
2023/04/07 01:25:21;;;;;;;48.25;40.88;;;;;;;;;;4926348;29;21278;-74
2023/04/07 01:27:59;;;;;;;91.43;74.45;;;;;;;;;;4924492;29;20087;-72
2023/04/07 01:30:27;;;;;;;73.13;60.85;;;;;;;;;;4926143;29;20070;-74
2023/04/07 01:32:55;;;;;;;96.50;76.78;;;;;;;;;;4914851;29;20027;-73
2023/04/07 01:35:21;;;;;;;108.97;85.50;;;;;;;;;;4923906;29;20040;-77
2023/04/07 01:37:48;;;;;;;108.75;89.97;;;;;;;;;;4926294;29;20054;-74
2023/04/07 01:40:14;;;;;;;98.05;77.90;;;;;;;;;;4924848;29;20035;-73
2023/04/07 01:42:40;;;;;;;88.25;74.28;;;;;;;;;;4924913;29;20102;-73
2023/04/07 01:45:06;;;;;;;78.40;64.22;;;;;;;;;;4924983;29;20044;-73
2023/04/07 01:47:33;;;;;;;77.70;63.30;;;;;;;;;;4925439;29;20234;-72
2023/04/07 01:50:00;;;;;;;76.05;61.28;;;;;;;;;;4916728;28;20031;-76
2023/04/07 01:52:26;;;;;;;69.40;55.70;;;;;;;;;;4985061;28;20033;-77
2023/04/07 01:54:52;;;;;;;73.20;56.78;;;;;;;;;;4999865;28;20088;-76
2023/04/07 01:57:18;;;;;;;79.35;63.08;;;;;;;;;;4998663;28;20034;-74
2023/04/07 01:59:43;;;;;;;78.55;61.42;;;;;;;;;;4997646;28;20045;-73
2023/04/07 02:02:08;;;;;;;80.63;65.88;;;;;;;;;;4992603;28;20021;-74
2023/04/07 02:04:42;;;;;;;80.75;64.28;;;;;;;;;;4990036;28;20070;-77
2023/04/07 02:07:10;;;;;;;59.63;51.08;;;;;;;;;;4990293;28;20038;-74
2023/04/07 02:09:37;;;;;;;73.90;58.08;;;;;;;;;;4990844;28;20114;-73
2023/04/07 02:12:04;;;;;;;129.23;99.60;;;;;;;;;;4997779;28;20026;-74
2023/04/07 02:14:31;;;;;;;135.65;103.82;;;;;;;;;;4996355;28;20093;-73
2023/04/07 02:16:58;;;;;;;103.85;80.28;;;;;;;;;;4995118;28;20037;-72
2023/04/07 02:19:24;;;;;;;122.90;99.30;;;;;;;;;;4997610;28;20026;-74
2023/04/07 02:21:50;;;;;;;151.27;120.07;;;;;;;;;;4995912;28;20111;-72
2023/04/07 02:24:18;;;;;;;112.75;85.18;;;;;;;;;;4995359;28;20041;-72
2023/04/07 02:26:43;;;;;;;115.75;86.93;;;;;;;;;;4996834;28;20317;-73
2023/04/07 02:29:09;;;;;;;112.95;86.53;;;;;;;;;;4997462;28;20026;-74
2023/04/07 02:31:34;;;;;;;95.88;75.25;;;;;;;;;;4991683;28;20164;-75
2023/04/07 02:34:00;;;;;;;98.97;77.72;;;;;;;;;;4988977;28;20086;-72
2023/04/07 02:36:25;;;;;;;74.50;60.05;;;;;;;;;;4995053;28;20034;-74
2023/04/07 02:38:51;;;;;;;118.72;82.25;;;;;;;;;;4997263;28;20452;-72
2023/04/07 02:41:16;;;;;;;98.95;72.60;;;;;;;;;;4997511;28;20029;-72
2023/04/07 02:43:41;;;;;;;101.38;72.63;;;;;;;;;;4990043;28;20025;-73
2023/04/07 02:46:07;;;;;;;81.25;60.88;;;;;;;;;;4988026;28;20101;-73
2023/04/07 02:48:32;;;;;;;70.47;51.40;;;;;;;;;;4998078;28;20060;-74
2023/04/07 02:50:58;;;;;;;60.33;48.03;;;;;;;;;;4995913;28;20084;-73
2023/04/07 02:53:23;;;;;;;65.85;51.65;;;;;;;;;;4996979;28;20033;-73
2023/04/07 02:55:48;;;;;;;70.88;54.05;;;;;;;;;;4982677;28;20034;-74
2023/04/07 02:58:14;;;;;;;61.25;50.25;;;;;;;;;;4988374;28;20422;-72
2023/04/07 03:00:39;;;;;;;85.35;66.38;;;;;;;;;;4994887;28;20079;-72
2023/04/07 03:03:05;;;;;;;121.90;89.18;;;;;;;;;;4993649;28;20021;-72
2023/04/07 03:05:30;;;;;;;142.80;103.20;;;;;;;;;;4990682;28;20081;-72
2023/04/07 03:07:56;;;;;;;105.18;80.28;;;;;;;;;;4995306;28;20083;-72
2023/04/07 03:10:21;;;;;;;83.68;64.53;;;;;;;;;;4988244;28;20029;-75
2023/04/07 03:12:47;;;;;;;75.32;60.72;;;;;;;;;;4989707;28;20027;-73
2023/04/07 03:15:12;;;;;;;71.47;56.70;;;;;;;;;;4994491;28;20083;-73
2023/04/07 03:17:38;;;;;;;71.80;56.53;;;;;;;;;;4996670;28;20425;-73
2023/04/07 03:20:03;;;;;;;74.80;56.85;;;;;;;;;;4994341;28;20168;-73
2023/04/07 03:22:29;;;;;;;61.28;50.95;;;;;;;;;;4987972;28;20405;-72
2023/04/07 03:24:54;;;;;;;53.80;43.13;;;;;;;;;;4991146;28;20105;-71
2023/04/07 03:27:19;;;;;;;50.40;41.83;;;;;;;;;;4985853;28;20287;-72
2023/04/07 03:29:45;;;;;;;48.22;39.33;;;;;;;;;;4991370;28;20025;-72
2023/04/07 03:32:11;;;;;;;35.80;30.77;;;;;;;;;;4988296;28;20030;-72
2023/04/07 03:34:36;;;;;;;34.05;28.02;;;;;;;;;;4992862;28;20428;-76
2023/04/07 03:37:01;;;;;;;33.85;27.65;;;;;;;;;;4994258;28;20492;-74
2023/04/07 03:39:26;;;;;;;30.13;25.23;;;;;;;;;;4996959;28;20022;-73
2023/04/07 03:41:52;;;;;;;31.52;24.67;;;;;;;;;;4996160;28;20038;-73
2023/04/07 03:44:17;;;;;;;32.92;26.25;;;;;;;;;;4996164;28;20117;-72
2023/04/07 03:46:44;;;;;;;30.45;24.90;;;;;;;;;;4995735;28;20053;-76
2023/04/07 03:49:09;;;;;;;41.55;30.85;;;;;;;;;;4991363;28;20021;-73
2023/04/07 03:51:35;;;;;;;36.90;29.63;;;;;;;;;;4986613;28;20488;-72
2023/04/07 03:54:00;;;;;;;35.17;29.58;;;;;;;;;;4979972;28;20037;-75
2023/04/07 03:56:26;;;;;;;33.83;28.95;;;;;;;;;;4988563;28;20061;-75
2023/04/07 03:58:51;;;;;;;32.63;27.98;;;;;;;;;;4976888;28;20037;-74
2023/04/07 04:01:17;;;;;;;34.30;28.92;;;;;;;;;;4972369;28;20338;-72
2023/04/07 04:03:42;;;;;;;29.80;25.30;;;;;;;;;;4981659;28;20048;-72
2023/04/07 04:06:07;;;;;;;22.55;20.15;;;;;;;;;;4994735;28;20111;-74
2023/04/07 04:08:32;;;;;;;28.50;23.85;;;;;;;;;;4991080;28;20084;-72
2023/04/07 04:10:58;;;;;;;24.92;20.67;;;;;;;;;;4987437;28;20026;-74
2023/04/07 04:13:23;;;;;;;25.75;22.02;;;;;;;;;;4991339;28;20065;-72
2023/04/07 04:15:48;;;;;;;26.90;23.13;;;;;;;;;;4995006;28;20028;-72
2023/04/07 04:18:14;;;;;;;31.23;26.02;;;;;;;;;;4996334;28;20030;-72
2023/04/07 04:20:39;;;;;;;42.88;34.45;;;;;;;;;;4991489;28;20018;-75
2023/04/07 04:23:05;;;;;;;34.53;28.52;;;;;;;;;;4994820;28;20092;-72
2023/04/07 04:25:30;;;;;;;84.82;62.15;;;;;;;;;;4992980;28;20025;-75
2023/04/07 04:27:55;;;;;;;43.00;36.03;;;;;;;;;;4995098;28;20395;-74
2023/04/07 04:30:21;;;;;;;44.53;36.00;;;;;;;;;;4995642;28;20030;-73
2023/04/07 04:32:46;;;;;;;46.70;39.45;;;;;;;;;;4981305;28;20022;-72
2023/04/07 04:35:12;;;;;;;45.05;38.60;;;;;;;;;;4993683;28;20456;-73
2023/04/07 04:37:37;;;;;;;41.10;36.45;;;;;;;;;;4978952;28;20113;-72
2023/04/07 04:40:03;;;;;;;33.35;29.85;;;;;;;;;;4993020;28;20056;-73
2023/04/07 04:42:30;;;;;;;31.85;28.67;;;;;;;;;;4991500;28;20338;-75
2023/04/07 04:44:55;;;;;;;34.72;27.88;;;;;;;;;;4992897;28;20022;-72
2023/04/07 04:47:20;;;;;;;34.20;28.48;;;;;;;;;;4988658;28;20116;-72
2023/04/07 04:49:46;;;;;;;33.90;30.33;;;;;;;;;;4981261;28;20042;-74
2023/04/07 04:52:11;;;;;;;28.33;25.17;;;;;;;;;;4981771;28;20106;-73
2023/04/07 04:54:36;;;;;;;27.17;23.73;;;;;;;;;;4994203;28;20338;-73
2023/04/07 04:57:02;;;;;;;27.13;24.27;;;;;;;;;;4993249;28;20306;-73
2023/04/07 04:59:27;;;;;;;35.17;30.48;;;;;;;;;;4996069;28;20057;-75
2023/04/07 05:01:52;;;;;;;46.33;39.10;;;;;;;;;;4985935;28;20333;-73
2023/04/07 05:04:18;;;;;;;41.38;35.85;;;;;;;;;;4979557;28;20035;-74
2023/04/07 05:06:43;;;;;;;40.92;34.83;;;;;;;;;;4982510;28;20089;-76
2023/04/07 05:09:08;;;;;;;40.50;34.70;;;;;;;;;;4983062;28;20037;-74
2023/04/07 05:11:34;;;;;;;51.53;40.67;;;;;;;;;;4981940;28;20029;-72
2023/04/07 05:13:59;;;;;;;43.55;35.33;;;;;;;;;;4982607;28;20030;-73
2023/04/07 05:16:25;;;;;;;42.78;38.17;;;;;;;;;;4983822;28;20042;-73
2023/04/07 05:18:50;;;;;;;51.15;43.70;;;;;;;;;;4984887;28;20438;-73
2023/04/07 05:21:16;;;;;;;65.05;52.08;;;;;;;;;;4982176;28;20353;-73
2023/04/07 05:23:41;;;;;;;75.85;54.45;;;;;;;;;;4984283;28;20084;-77
2023/04/07 05:26:06;;;;;;;99.10;64.65;;;;;;;;;;4986585;28;20026;-78
2023/04/07 05:28:31;;;;;;;44.45;35.63;;;;;;;;;;4983030;28;20072;-74
2023/04/07 05:30:57;;;;;;;64.05;49.83;;;;;;;;;;4996138;28;20346;-75
2023/04/07 05:33:22;;;;;;;44.20;39.40;;;;;;;;;;4994947;28;20057;-76
2023/04/07 05:35:47;;;;;;;46.83;41.83;;;;;;;;;;4983264;28;20034;-75
2023/04/07 05:38:13;;;;;;;65.53;52.35;;;;;;;;;;4996768;28;20025;-74
2023/04/07 05:40:38;;;;;;;47.28;40.35;;;;;;;;;;4991791;28;20380;-73
2023/04/07 05:43:04;;;;;;;39.33;33.05;;;;;;;;;;4985748;28;20022;-75
2023/04/07 05:45:29;;;;;;;42.75;35.63;;;;;;;;;;4982649;28;20038;-75
2023/04/07 05:47:55;;;;;;;51.83;43.83;;;;;;;;;;4993020;28;20466;-74
2023/04/07 05:50:20;;;;;;;87.70;63.40;;;;;;;;;;4997232;28;20037;-78
2023/04/07 05:52:45;;;;;;;103.13;79.00;;;;;;;;;;4998842;28;20442;-75
2023/04/07 05:55:11;;;;;;;118.13;94.30;;;;;;;;;;4997613;28;20501;-76
2023/04/07 05:57:36;;;;;;;84.07;71.80;;;;;;;;;;4986613;28;20037;-76
2023/04/07 06:00:02;;;;;;;53.63;47.67;;;;;;;;;;4996499;28;20029;-75
2023/04/07 06:02:27;;;;;;;42.70;38.20;;;;;;;;;;4998809;28;20469;-74
2023/04/07 06:04:53;;;;;;;45.13;40.33;;;;;;;;;;4997596;28;20037;-74
2023/04/07 06:07:18;;;;;;;43.28;38.67;;;;;;;;;;4998260;28;20090;-74
2023/04/07 06:09:43;;;;;;;48.25;42.92;;;;;;;;;;4998938;28;20342;-74
2023/04/07 06:12:11;;;;;;;52.15;43.42;;;;;;;;;;4998513;28;20030;-75
2023/04/07 06:14:36;;;;;;;60.42;54.20;;;;;;;;;;4995732;28;20026;-76
2023/04/07 06:17:01;;;;;;;62.97;56.10;;;;;;;;;;4996397;28;20369;-75
2023/04/07 06:19:27;;;;;;;55.80;48.25;;;;;;;;;;4996279;28;20038;-75
2023/04/07 06:21:52;;;;;;;47.67;40.70;;;;;;;;;;4993506;28;20033;-74
2023/04/07 06:24:18;;;;;;;62.40;49.13;;;;;;;;;;4997955;28;20041;-74
2023/04/07 06:26:43;;;;;;;39.08;34.97;;;;;;;;;;4996782;28;20408;-76
2023/04/07 06:29:09;;;;;;;40.03;35.90;;;;;;;;;;4996208;28;20457;-75
2023/04/07 06:31:34;;;;;;;31.00;27.85;;;;;;;;;;4997306;28;20437;-75
2023/04/07 06:33:59;;;;;;;34.47;30.55;;;;;;;;;;4995145;28;20079;-75
2023/04/07 06:36:26;;;;;;;41.13;36.72;;;;;;;;;;4997586;28;20034;-76
2023/04/07 06:38:52;;;;;;;70.93;59.90;;;;;;;;;;4994932;28;20444;-75
2023/04/07 06:41:17;;;;;;;63.63;55.75;;;;;;;;;;4994744;28;20030;-76
2023/04/07 06:43:43;;;;;;;39.28;31.70;;;;;;;;;;4996465;28;20112;-74
2023/04/07 06:46:08;;;;;;;121.97;76.68;;;;;;;;;;4997617;28;20041;-75
2023/04/07 06:48:33;;;;;;;203.23;121.70;;;;;;;;;;4996587;28;20045;-74
2023/04/07 06:50:59;;;;;;;167.75;129.10;;;;;;;;;;4995026;28;20472;-73
2023/04/07 06:53:24;;;;;;;47.20;42.10;;;;;;;;;;4994806;28;20024;-75
2023/04/07 06:55:49;;;;;;;72.97;60.90;;;;;;;;;;4994871;28;20195;-76
2023/04/07 06:58:15;;;;;;;65.05;54.42;;;;;;;;;;4996575;28;20083;-74
2023/04/07 07:00:40;;;;;;;107.70;87.63;;;;;;;;;;4998333;28;20465;-74
2023/04/07 07:03:05;;;;;;;64.30;54.58;;;;;;;;;;4996157;28;20058;-76
2023/04/07 07:05:31;;;;;;;104.10;74.07;;;;;;;;;;4995622;28;20026;-75
2023/04/07 07:07:56;;;;;;;44.92;38.92;;;;;;;;;;4998521;28;20037;-74
2023/04/07 07:10:21;;;;;;;73.88;57.33;;;;;;;;;;4998585;28;20191;-75
2023/04/07 07:12:47;;;;;;;80.03;55.47;;;;;;;;;;4995743;28;20341;-75
2023/04/07 07:15:13;;;;;;;110.93;71.25;;;;;;;;;;4995839;28;20025;-75
2023/04/07 07:17:38;;;;;;;39.80;33.72;;;;;;;;;;4993479;28;20038;-77
2023/04/07 07:20:03;;;;;;;52.50;42.85;;;;;;;;;;4997390;28;20021;-75
2023/04/07 07:22:29;;;;;;;56.75;45.83;;;;;;;;;;4994728;28;20061;-75
2023/04/07 07:24:55;;;;;;;45.88;36.33;;;;;;;;;;4995698;28;20030;-75
2023/04/07 07:27:20;;;;;;;40.42;31.85;;;;;;;;;;4996144;28;20086;-74
2023/04/07 07:29:45;;;;;;;33.80;27.02;;;;;;;;;;4997078;28;20030;-75
2023/04/07 07:32:11;;;;;;;50.72;35.17;;;;;;;;;;4996691;28;20057;-74
2023/04/07 07:34:36;;;;;;;38.90;34.05;;;;;;;;;;4995190;28;20095;-74
2023/04/07 07:37:01;;;;;;;37.80;33.72;;;;;;;;;;4997126;28;20155;-75
2023/04/07 07:39:27;;;;;;;40.47;34.65;;;;;;;;;;4995543;28;20099;-74
2023/04/07 07:41:52;;;;;;;42.95;34.40;;;;;;;;;;4996444;28;20076;-76
2023/04/07 07:44:21;;;;;;;43.67;38.33;;;;;;;;;;4996069;28;20133;-74
2023/04/07 07:46:47;;;;;;;34.50;28.77;;;;;;;;;;4990446;28;20138;-74
2023/04/07 07:49:12;;;;;;;31.67;24.95;;;;;;;;;;4995298;28;20116;-76
2023/04/07 07:51:37;;;;;;;37.60;30.42;;;;;;;;;;4995408;28;20068;-74
2023/04/07 07:54:02;;;;;;;30.20;23.75;;;;;;;;;;4995314;28;20057;-73
2023/04/07 07:56:28;;;;;;;40.30;31.17;;;;;;;;;;4993264;28;20048;-76
2023/04/07 07:58:53;;;;;;;30.98;24.08;;;;;;;;;;4996870;28;20466;-75
2023/04/07 08:01:18;;;;;;;47.45;38.55;;;;;;;;;;4997142;28;20030;-73
2023/04/07 08:03:44;;;;;;;30.02;24.48;;;;;;;;;;4993902;28;20033;-74
2023/04/07 08:06:10;;;;;;;25.52;22.80;;;;;;;;;;4995466;28;20030;-74
2023/04/07 08:08:36;;;;;;;26.45;22.73;;;;;;;;;;4995675;28;20034;-74
2023/04/07 08:11:01;;;;;;;35.15;30.60;;;;;;;;;;4995286;28;20140;-76
2023/04/07 08:13:27;;;;;;;25.17;21.50;;;;;;;;;;4994067;28;20445;-75
2023/04/07 08:15:52;;;;;;;42.13;33.75;;;;;;;;;;4996055;28;20068;-75
2023/04/07 08:18:17;;;;;;;81.38;59.63;;;;;;;;;;4996511;28;20044;-74
2023/04/07 08:20:43;;;;;;;33.38;26.55;;;;;;;;;;4995394;28;21346;-75
2023/04/07 08:23:08;;;;;;;61.63;46.30;;;;;;;;;;4995620;28;20030;-74
2023/04/07 08:25:34;;;;;;;35.38;31.00;;;;;;;;;;4992896;28;20449;-74
2023/04/07 08:27:59;;;;;;;23.35;21.05;;;;;;;;;;4993760;28;20030;-74
2023/04/07 08:30:25;;;;;;;30.70;27.23;;;;;;;;;;4995627;28;20101;-75
2023/04/07 08:32:51;;;;;;;25.02;22.63;;;;;;;;;;4997043;28;20022;-77
2023/04/07 08:35:16;;;;;;;23.63;21.23;;;;;;;;;;4994113;28;20042;-75
2023/04/07 08:37:43;;;;;;;28.35;23.98;;;;;;;;;;4991614;28;20445;-74
2023/04/07 08:40:08;;;;;;;18.52;16.52;;;;;;;;;;4994124;28;20461;-74
2023/04/07 08:42:35;;;;;;;22.33;19.80;;;;;;;;;;4995146;28;20144;-74
2023/04/07 08:45:04;;;;;;;34.15;28.20;;;;;;;;;;4992977;28;20030;-77
2023/04/07 08:47:34;;;;;;;20.25;18.25;;;;;;;;;;5026933;28;20370;-74
2023/04/07 08:50:00;;;;;;;20.77;18.58;;;;;;;;;;4991511;28;20030;-76
2023/04/07 08:52:31;;;;;;;22.88;20.52;;;;;;;;;;4997574;28;20037;-77
2023/04/07 08:54:57;;;;;;;21.92;19.67;;;;;;;;;;4993866;28;20041;-74
2023/04/07 08:57:22;;;;;;;21.33;19.15;;;;;;;;;;4995513;28;20463;-74
2023/04/07 08:59:50;;;;;;;24.08;21.35;;;;;;;;;;4994048;28;20053;-77
2023/04/07 09:02:16;;;;;;;24.15;21.65;;;;;;;;;;4994885;28;20055;-74
2023/04/07 09:04:42;;;;;;;30.48;27.40;;;;;;;;;;4997680;28;20028;-75
2023/04/07 09:07:08;;;;;;;36.20;32.33;;;;;;;;;;4998289;28;20739;-75
2023/04/07 09:09:33;;;;;;;24.73;22.10;;;;;;;;;;4998398;28;20042;-74
2023/04/07 09:11:58;;;;;;;28.88;23.58;;;;;;;;;;4998632;28;20057;-74
2023/04/07 09:14:24;;;;;;;38.13;32.67;;;;;;;;;;4997327;28;20464;-75
2023/04/07 09:16:49;;;;;;;42.10;34.10;;;;;;;;;;4999114;28;20037;-73
2023/04/07 09:19:14;;;;;;;48.78;39.78;;;;;;;;;;4994968;28;20030;-74
2023/04/07 09:21:58;;;;;;;101.22;69.95;;;;;;;;;;4999539;28;20030;-74
2023/04/07 09:24:27;;;;;;;108.53;79.18;;;;;;;;;;4994754;28;20476;-79
2023/04/07 09:27:10;;;;;;;60.85;47.40;;;;;;;;;;4999961;28;20049;-75
2023/04/07 09:29:36;;;;;;;59.67;47.58;;;;;;;;;;4998240;28;20357;-74
2023/04/07 09:32:02;;;;;;;37.45;32.60;;;;;;;;;;5000640;28;20026;-74
2023/04/07 09:34:28;;;;;;;30.70;27.38;;;;;;;;;;4998131;28;20445;-75
2023/04/07 09:36:54;;;;;;;21.48;19.13;;;;;;;;;;4997096;28;20025;-78
2023/04/07 09:39:20;;;;;;;58.47;46.60;;;;;;;;;;4996877;28;20040;-74
2023/04/07 09:41:45;;;;;;;85.93;60.80;;;;;;;;;;4997202;28;20022;-76
2023/04/07 09:44:11;;;;;;;51.10;34.38;;;;;;;;;;4999791;28;20438;-75
2023/04/07 09:46:47;;;;;;;70.72;47.65;;;;;;;;;;4999208;28;20385;-75
2023/04/07 09:49:12;;;;;;;114.50;69.97;;;;;;;;;;4997742;28;20118;-76
2023/04/07 09:51:37;;;;;;;47.25;37.20;;;;;;;;;;4998486;28;20423;-75
2023/04/07 09:54:03;;;;;;;96.03;58.58;;;;;;;;;;4993953;28;20041;-78
2023/04/07 09:56:28;;;;;;;63.00;44.85;;;;;;;;;;4997324;28;20046;-75
2023/04/07 09:58:54;;;;;;;116.53;76.47;;;;;;;;;;4996519;28;20022;-76
2023/04/07 10:01:20;;;;;;;87.72;65.93;;;;;;;;;;4998456;28;20042;-75
2023/04/07 10:03:46;;;;;;;75.80;44.47;;;;;;;;;;4997132;28;20096;-75
2023/04/07 10:06:11;;;;;;;79.30;46.03;;;;;;;;;;4999945;28;20438;-75
2023/04/07 10:08:38;;;;;;;62.67;39.42;;;;;;;;;;4996648;28;20125;-75
2023/04/07 10:11:04;;;;;;;46.22;31.15;;;;;;;;;;4994934;28;20037;-74
2023/04/07 10:13:30;;;;;;;54.83;43.28;;;;;;;;;;4997842;28;20458;-75
2023/04/07 10:15:56;;;;;;;67.90;60.65;;;;;;;;;;4997435;28;20033;-75
2023/04/07 10:18:22;;;;;;;40.22;35.95;;;;;;;;;;4995476;28;20030;-75
2023/04/07 10:20:48;;;;;;;31.40;28.00;;;;;;;;;;4998415;28;20801;-75
2023/04/07 10:23:21;;;;;;;50.00;44.53;;;;;;;;;;4997889;28;20033;-74
2023/04/07 10:25:48;;;;;;;74.85;59.70;;;;;;;;;;4999112;28;20035;-75
2023/04/07 10:28:15;;;;;;;51.28;45.67;;;;;;;;;;4997709;28;20040;-75
2023/04/07 10:30:40;;;;;;;44.60;39.83;;;;;;;;;;4998055;28;20125;-75
2023/04/07 10:33:06;;;;;;;52.80;47.17;;;;;;;;;;4998282;28;20057;-75
2023/04/07 10:36:04;;;;;;;54.47;48.78;;;;;;;;;;4998793;28;20026;-76
2023/04/07 10:38:30;;;;;;;26.48;23.65;;;;;;;;;;4953998;28;20062;-76
2023/04/07 10:40:56;;;;;;;35.03;31.48;;;;;;;;;;4941751;28;20034;-75
2023/04/07 10:43:40;;;;;;;38.08;34.03;;;;;;;;;;4952351;28;20042;-77
2023/04/07 10:46:06;;;;;;;38.22;33.88;;;;;;;;;;4953198;28;20027;-75
2023/04/07 10:48:35;;;;;;;43.03;38.47;;;;;;;;;;4954082;28;20516;-75
2023/04/07 10:51:20;;;;;;;46.08;37.33;;;;;;;;;;4953863;28;20479;-76
2023/04/07 10:54:04;;;;;;;60.97;47.95;;;;;;;;;;4951809;28;20537;-75
2023/04/07 10:56:49;;;;;;;44.40;32.33;;;;;;;;;;4970079;28;20529;-75
2023/04/07 10:59:15;;;;;;;29.75;26.50;;;;;;;;;;4953369;28;20058;-77
2023/04/07 11:01:40;;;;;;;42.92;37.08;;;;;;;;;;4953680;28;20109;-75
2023/04/07 11:04:07;;;;;;;32.55;28.38;;;;;;;;;;4953665;28;20582;-74
2023/04/07 11:06:33;;;;;;;30.42;25.52;;;;;;;;;;4953072;28;20497;-75
2023/04/07 11:08:58;;;;;;;22.75;20.38;;;;;;;;;;4953053;28;20031;-75
2023/04/07 11:11:37;;;;;;;47.45;38.80;;;;;;;;;;4954693;28;20030;-75
2023/04/07 11:14:03;;;;;;;32.17;28.80;;;;;;;;;;4975831;28;21598;-75
2023/04/07 11:16:36;;;;;;;27.10;24.08;;;;;;;;;;4997986;28;20273;-74
2023/04/07 11:19:01;;;;;;;30.80;27.48;;;;;;;;;;4996415;28;20029;-75
2023/04/07 11:21:26;;;;;;;30.33;27.02;;;;;;;;;;4993395;28;20030;-75
2023/04/07 11:23:51;;;;;;;45.40;38.17;;;;;;;;;;4995736;28;20033;-76
2023/04/07 11:26:17;;;;;;;32.58;27.10;;;;;;;;;;4998199;28;20083;-76
2023/04/07 11:28:52;;;;;;;35.35;29.80;;;;;;;;;;4995481;28;20533;-75
2023/04/07 11:31:21;;;;;;;43.10;37.10;;;;;;;;;;4997196;28;20026;-74
2023/04/07 11:33:50;;;;;;;34.35;30.48;;;;;;;;;;4994091;28;20033;-78
2023/04/07 11:36:25;;;;;;;29.25;24.33;;;;;;;;;;4993300;28;20100;-75
2023/04/07 11:38:51;;;;;;;25.95;23.23;;;;;;;;;;4996728;28;20117;-75
2023/04/07 11:41:16;;;;;;;31.13;25.42;;;;;;;;;;4996413;28;20101;-75
2023/04/07 11:43:42;;;;;;;35.88;29.25;;;;;;;;;;4996734;28;20109;-76
2023/04/07 11:46:08;;;;;;;56.58;49.90;;;;;;;;;;4995789;28;21162;-76
2023/04/07 11:48:34;;;;;;;68.10;60.88;;;;;;;;;;4993634;28;20100;-77
2023/04/07 11:51:00;;;;;;;39.28;35.20;;;;;;;;;;4996860;28;20454;-75
2023/04/07 11:53:29;;;;;;;75.18;63.50;;;;;;;;;;4994159;28;20396;-75
2023/04/07 11:56:02;;;;;;;56.75;48.25;;;;;;;;;;4996231;28;20058;-75
2023/04/07 11:58:27;;;;;;;37.88;33.42;;;;;;;;;;4995814;28;20077;-74
2023/04/07 12:00:54;;;;;;;50.72;37.63;;;;;;;;;;4997149;28;20495;-75
2023/04/07 12:03:19;;;;;;;36.60;32.63;;;;;;;;;;4996404;28;20081;-76
2023/04/07 12:05:45;;;;;;;25.92;23.17;;;;;;;;;;4997536;28;20506;-75
2023/04/07 12:08:10;;;;;;;32.88;26.98;;;;;;;;;;4997802;28;20036;-75
2023/04/07 12:10:39;;;;;;;45.25;33.33;;;;;;;;;;4993928;28;20356;-74
2023/04/07 12:13:05;;;;;;;38.97;29.80;;;;;;;;;;4994875;28;20054;-75
2023/04/07 12:15:30;;;;;;;39.05;34.13;;;;;;;;;;4986166;28;20108;-74
2023/04/07 12:17:55;;;;;;;26.90;24.02;;;;;;;;;;4984742;28;20052;-75
2023/04/07 12:20:21;;;;;;;45.10;39.17;;;;;;;;;;4983418;28;20021;-74
2023/04/07 12:22:47;;;;;;;34.13;30.52;;;;;;;;;;4982879;28;20413;-75
2023/04/07 12:25:12;;;;;;;25.75;23.02;;;;;;;;;;4985189;28;20026;-74
2023/04/07 12:27:37;;;;;;;26.80;24.02;;;;;;;;;;4996200;28;20125;-75
2023/04/07 12:30:03;;;;;;;24.42;21.83;;;;;;;;;;4993439;28;20025;-77
2023/04/07 12:32:28;;;;;;;28.42;24.83;;;;;;;;;;4996380;28;20109;-75
2023/04/07 12:34:54;;;;;;;23.08;19.70;;;;;;;;;;4996241;28;20038;-75
2023/04/07 12:37:19;;;;;;;50.25;41.70;;;;;;;;;;4996291;28;20068;-75
2023/04/07 12:39:44;;;;;;;46.90;34.78;;;;;;;;;;4986224;28;20025;-74
2023/04/07 12:42:10;;;;;;;30.80;24.38;;;;;;;;;;5001862;28;20108;-74
2023/04/07 12:44:36;;;;;;;26.00;21.77;;;;;;;;;;4998464;28;20025;-74
2023/04/07 12:47:01;;;;;;;29.23;26.10;;;;;;;;;;4994180;28;20061;-74
2023/04/07 12:49:27;;;;;;;37.17;29.92;;;;;;;;;;4998881;28;20026;-77
2023/04/07 12:51:52;;;;;;;27.17;24.48;;;;;;;;;;4991232;28;20129;-74
2023/04/07 12:54:17;;;;;;;22.55;19.20;;;;;;;;;;4985141;28;20416;-77
2023/04/07 12:56:43;;;;;;;20.98;18.77;;;;;;;;;;4989479;28;20033;-76
2023/04/07 12:59:08;;;;;;;24.55;19.85;;;;;;;;;;4997526;28;20076;-74
2023/04/07 13:01:36;;;;;;;25.23;22.30;;;;;;;;;;4995323;28;20386;-73
2023/04/07 13:04:02;;;;;;;27.48;24.58;;;;;;;;;;4985234;28;20480;-74
2023/04/07 13:06:27;;;;;;;35.72;27.48;;;;;;;;;;4984207;28;20441;-73
2023/04/07 13:08:52;;;;;;;23.58;20.23;;;;;;;;;;4995990;28;20060;-74
2023/04/07 13:11:18;;;;;;;33.58;27.80;;;;;;;;;;4998620;28;20033;-75
2023/04/07 13:13:43;;;;;;;35.30;29.33;;;;;;;;;;4994938;28;20052;-75
2023/04/07 13:16:09;;;;;;;37.00;32.42;;;;;;;;;;5000165;28;20361;-75
2023/04/07 13:18:34;;;;;;;29.63;24.08;;;;;;;;;;4998422;28;20353;-74
2023/04/07 13:20:59;;;;;;;22.65;19.95;;;;;;;;;;4999005;28;20082;-73
2023/04/07 13:23:24;;;;;;;40.60;35.67;;;;;;;;;;4999062;28;20136;-76
2023/04/07 13:25:50;;;;;;;54.90;49.47;;;;;;;;;;4984559;28;20033;-76
2023/04/07 13:28:17;;;;;;;38.05;34.38;;;;;;;;;;4994284;28;20033;-76
2023/04/07 13:30:42;;;;;;;26.35;23.42;;;;;;;;;;5005476;28;20034;-75
2023/04/07 13:33:08;;;;;;;33.25;25.05;;;;;;;;;;4998351;28;20017;-77
2023/04/07 13:35:34;;;;;;;37.17;29.52;;;;;;;;;;4999908;28;20438;-76
2023/04/07 13:37:59;;;;;;;24.65;19.92;;;;;;;;;;4998710;28;20056;-77
2023/04/07 13:40:25;;;;;;;19.10;16.98;;;;;;;;;;4998950;28;20069;-76
2023/04/07 13:42:50;;;;;;;19.63;17.38;;;;;;;;;;4997382;28;20032;-77
2023/04/07 13:45:15;;;;;;;17.80;15.85;;;;;;;;;;4994225;28;20037;-76
2023/04/07 13:47:41;;;;;;;19.17;15.60;;;;;;;;;;4989423;28;20086;-78
2023/04/07 13:50:06;;;;;;;25.98;23.25;;;;;;;;;;4996679;28;20034;-77
2023/04/07 13:52:34;;;;;;;19.83;17.77;;;;;;;;;;4992310;28;20025;-77
2023/04/07 13:55:00;;;;;;;23.50;20.90;;;;;;;;;;4988485;28;20026;-78
2023/04/07 13:57:25;;;;;;;33.38;28.80;;;;;;;;;;4998404;28;20032;-78
2023/04/07 13:59:51;;;;;;;24.08;21.20;;;;;;;;;;5000025;28;20037;-80
2023/04/07 14:02:19;;;;;;;40.50;35.97;;;;;;;;;;4996162;28;20087;-78
2023/04/07 14:04:45;;;;;;;31.27;26.58;;;;;;;;;;4997858;28;20021;-78
2023/04/07 14:07:10;;;;;;;41.33;37.08;;;;;;;;;;4996836;28;20045;-78
2023/04/07 14:09:36;;;;;;;30.73;27.65;;;;;;;;;;5000142;28;20552;-77
2023/04/07 14:12:02;;;;;;;67.68;60.42;;;;;;;;;;5000533;28;20034;-78